createdAt,value
2022-10-19T00:00:05.696Z,12.16
2022-10-19T00:02:33.553Z,12.07
2022-10-19T00:05:01.440Z,12.07
2022-10-19T00:07:31.026Z,12.16
2022-10-19T00:09:59.110Z,11.99
2022-10-19T00:12:26.971Z,12.03
2022-10-19T00:14:54.825Z,11.99
2022-10-19T00:17:22.726Z,11.97
2022-10-19T00:19:50.576Z,12.07
2022-10-19T00:22:18.502Z,12.09
2022-10-19T00:24:47.816Z,12.15
2022-10-19T00:27:15.820Z,12.10
2022-10-19T00:29:44.241Z,12.05
2022-10-19T00:32:12.315Z,11.97
2022-10-19T00:34:40.297Z,12.03
2022-10-19T00:37:08.280Z,12.10
2022-10-19T00:39:36.244Z,12.19
2022-10-19T00:42:05.699Z,12.28
2022-10-19T00:45:00.233Z,12.23
2022-10-19T00:47:28.534Z,12.33
2022-10-19T00:49:58.419Z,12.36
2022-10-19T00:52:27.257Z,12.30
2022-10-19T00:54:56.444Z,12.32
2022-10-19T00:57:28.919Z,12.41
2022-10-19T00:59:57.101Z,12.43
2022-10-19T01:02:24.968Z,12.44
2022-10-19T01:08:02.568Z,12.47
2022-10-19T01:10:37.200Z,12.53
2022-10-19T01:13:17.719Z,12.62
2022-10-19T01:15:54.606Z,12.51
2022-10-19T01:18:25.337Z,12.59
2022-10-19T01:21:26.342Z,12.56
2022-10-19T01:24:06.167Z,12.53
2022-10-19T01:26:50.882Z,12.61
2022-10-19T01:29:26.461Z,12.65
2022-10-19T01:31:59.861Z,12.68
2022-10-19T01:34:33.630Z,12.67
2022-10-19T01:37:04.371Z,12.68
2022-10-19T01:39:40.845Z,12.94
2022-10-19T01:42:13.800Z,12.87
2022-10-19T01:44:46.523Z,12.86
2022-10-19T01:47:18.127Z,12.88
2022-10-19T01:49:48.809Z,12.83
2022-10-19T01:52:19.472Z,12.79
2022-10-19T01:54:50.558Z,12.79
2022-10-19T01:57:21.944Z,12.74
2022-10-19T01:59:50.570Z,12.79
2022-10-19T02:02:19.862Z,12.85
2022-10-19T02:04:49.910Z,12.82
2022-10-19T02:07:18.460Z,12.90
2022-10-19T02:09:46.303Z,13.00
2022-10-19T02:12:14.846Z,13.00
2022-10-19T02:14:45.963Z,12.89
2022-10-19T02:17:16.144Z,13.01
2022-10-19T02:19:45.412Z,12.95
2022-10-19T02:22:13.655Z,12.90
2022-10-19T02:24:41.691Z,12.98
2022-10-19T02:27:10.108Z,13.02
2022-10-19T02:29:38.232Z,12.90
2022-10-19T02:32:06.724Z,12.96
2022-10-19T02:34:35.065Z,12.87
2022-10-19T02:37:04.657Z,12.93
2022-10-19T02:39:32.855Z,12.97
2022-10-19T02:42:04.483Z,12.99
2022-10-19T02:44:35.344Z,12.89
2022-10-19T02:47:06.157Z,12.83
2022-10-19T02:49:35.895Z,12.76
2022-10-19T02:52:06.826Z,12.74
2022-10-19T02:54:34.915Z,12.73
2022-10-19T03:05:22.122Z,12.66
2022-10-19T03:07:51.389Z,12.65
2022-10-19T03:10:22.318Z,12.62
2022-10-19T03:12:53.276Z,12.56
2022-10-19T03:15:27.071Z,12.49
2022-10-19T03:17:58.003Z,12.51
2022-10-19T03:20:28.873Z,12.45
2022-10-19T03:23:01.119Z,12.49
2022-10-19T03:25:32.012Z,12.51
2022-10-19T03:28:02.998Z,12.41
2022-10-19T03:30:33.900Z,12.39
2022-10-19T03:33:04.928Z,12.47
2022-10-19T03:35:35.896Z,12.42
2022-10-19T03:38:05.110Z,12.37
2022-10-19T03:40:33.014Z,12.37
2022-10-19T03:43:00.854Z,12.36
2022-10-19T03:45:28.722Z,12.33
2022-10-19T03:47:56.633Z,12.28
2022-10-19T03:50:24.587Z,12.28
2022-10-19T03:52:52.538Z,12.21
2022-10-19T03:55:21.788Z,12.22
2022-10-19T03:57:49.778Z,12.23
2022-10-19T04:00:17.755Z,12.30
2022-10-19T04:02:45.730Z,12.28
2022-10-19T04:05:13.690Z,12.31
2022-10-19T04:07:41.626Z,12.26
2022-10-19T04:10:09.958Z,12.29
2022-10-19T04:12:39.228Z,12.32
2022-10-19T04:15:07.958Z,12.27
2022-10-19T04:17:36.230Z,12.26
2022-10-19T04:20:05.052Z,12.27
2022-10-19T04:22:32.958Z,12.16
2022-10-19T04:25:00.819Z,12.13
2022-10-19T04:27:28.719Z,12.04
2022-10-19T04:29:58.010Z,12.04
2022-10-19T04:32:26.034Z,12.08
2022-10-19T04:34:53.988Z,12.12
2022-10-19T04:37:21.896Z,12.04
2022-10-19T04:39:49.799Z,12.00
2022-10-19T04:42:17.728Z,12.06
2022-10-19T04:44:45.632Z,12.13
2022-10-19T04:47:14.915Z,12.08
2022-10-19T04:49:42.839Z,12.07
2022-10-19T04:52:10.702Z,12.02
2022-10-19T04:54:38.544Z,11.99
2022-10-19T04:57:06.394Z,11.87
2022-10-19T04:59:34.541Z,11.86
2022-10-19T05:02:02.375Z,11.86
2022-10-19T05:04:31.816Z,11.88
2022-10-19T05:06:59.666Z,11.79
2022-10-19T05:09:27.559Z,11.83
2022-10-19T05:11:55.450Z,11.76
2022-10-19T05:14:23.731Z,11.75
2022-10-19T05:16:51.640Z,11.80
2022-10-19T05:19:19.737Z,11.77
2022-10-19T05:21:49.003Z,11.75
2022-10-19T05:24:16.984Z,11.69
2022-10-19T05:26:45.151Z,11.70
2022-10-19T05:29:14.197Z,11.77
2022-10-19T05:31:42.073Z,11.67
2022-10-19T05:34:10.075Z,11.70
2022-10-19T05:36:39.631Z,11.69
2022-10-19T05:39:11.710Z,11.68
2022-10-19T05:41:39.593Z,11.68
2022-10-19T05:44:07.585Z,11.69
2022-10-19T05:46:35.725Z,11.69
2022-10-19T05:49:03.662Z,11.78
2022-10-19T05:51:31.540Z,11.79
2022-10-19T05:53:59.453Z,11.88
2022-10-19T05:56:30.126Z,11.90
2022-10-19T05:58:58.702Z,11.91
2022-10-19T06:01:26.975Z,11.90
2022-10-19T06:03:55.788Z,11.90
2022-10-19T06:06:24.043Z,11.90
2022-10-19T06:08:53.063Z,11.89
2022-10-19T06:11:22.358Z,11.83
2022-10-19T06:13:52.900Z,11.96
2022-10-19T06:16:21.494Z,11.91
2022-10-19T06:18:49.382Z,11.96
2022-10-19T06:21:19.586Z,12.00
2022-10-19T06:23:51.296Z,11.95
2022-10-19T06:26:19.602Z,11.95
2022-10-19T06:28:47.724Z,12.05
2022-10-19T06:31:17.111Z,11.98
2022-10-19T06:33:48.650Z,11.92
2022-10-19T06:36:19.780Z,11.98
2022-10-19T06:38:47.823Z,11.95
2022-10-19T06:41:17.799Z,11.93
2022-10-19T06:43:46.575Z,11.93
2022-10-19T06:46:20.296Z,11.86
2022-10-19T06:48:51.550Z,11.96
2022-10-19T06:51:19.547Z,12.04
2022-10-19T06:53:47.416Z,12.21
2022-10-19T06:56:15.313Z,12.08
2022-10-19T06:58:43.120Z,12.15
2022-10-19T07:01:12.183Z,12.08
2022-10-19T07:03:41.559Z,12.09
2022-10-19T07:06:11.436Z,12.03
2022-10-19T07:08:40.148Z,11.93
2022-10-19T07:11:10.292Z,11.85
2022-10-19T07:13:38.231Z,11.88
2022-10-19T07:16:07.884Z,11.92
2022-10-19T07:18:37.007Z,11.94
2022-10-19T07:21:07.916Z,11.89
2022-10-19T07:23:37.895Z,11.83
2022-10-19T07:26:06.752Z,11.71
2022-10-19T07:28:35.344Z,11.68
2022-10-19T07:31:07.477Z,11.69
2022-10-19T07:33:35.549Z,11.51
2022-10-19T07:36:07.050Z,11.54
2022-10-19T07:38:35.934Z,11.40
2022-10-19T07:41:05.708Z,11.45
2022-10-19T07:43:33.685Z,11.57
2022-10-19T07:46:02.648Z,11.67
2022-10-19T07:48:30.846Z,11.71
2022-10-19T07:50:58.930Z,11.83
2022-10-19T07:53:28.190Z,11.88
2022-10-19T07:55:56.169Z,11.85
2022-10-19T07:58:24.005Z,12.03
2022-10-19T08:00:51.879Z,11.98
2022-10-19T08:04:13.801Z,11.91
2022-10-19T08:06:09.796Z,12.01
2022-10-19T08:08:39.551Z,12.16
2022-10-19T08:11:08.336Z,12.23
2022-10-19T08:13:36.491Z,12.35
2022-10-19T08:16:04.513Z,12.28
2022-10-19T08:21:05.958Z,12.31
2022-10-19T08:23:33.840Z,12.28
2022-10-19T08:26:03.060Z,12.54
2022-10-19T08:28:30.943Z,12.69
2022-10-19T08:30:59.060Z,12.94
2022-10-19T08:33:27.491Z,13.28
2022-10-19T08:35:55.391Z,13.19
2022-10-19T08:38:23.297Z,12.93
2022-10-19T08:40:51.173Z,12.72
2022-10-19T08:43:24.177Z,12.58
2022-10-19T08:45:57.303Z,12.52
2022-10-19T08:48:28.457Z,12.47
2022-10-19T08:50:57.906Z,12.42
2022-10-19T08:53:33.473Z,12.17
2022-10-19T08:56:08.873Z,12.38
2022-10-19T08:58:48.659Z,12.24
2022-10-19T09:01:25.264Z,12.28
2022-10-19T09:03:57.562Z,12.36
2022-10-19T09:06:28.426Z,12.42
2022-10-19T09:08:57.051Z,12.30
2022-10-19T09:11:26.920Z,12.42
2022-10-19T09:14:05.854Z,12.40
2022-10-19T09:16:35.202Z,12.64
2022-10-19T09:19:03.709Z,12.65
2022-10-19T09:21:46.060Z,12.51
2022-10-19T09:24:28.345Z,12.51
2022-10-19T09:26:57.845Z,12.50
2022-10-19T09:29:31.243Z,12.31
2022-10-19T09:32:00.977Z,12.23
2022-10-19T09:34:32.592Z,12.40
2022-10-19T09:37:00.986Z,12.73
2022-10-19T09:39:31.392Z,12.89
2022-10-19T09:42:02.641Z,12.85
2022-10-19T09:44:32.234Z,12.63
2022-10-19T09:47:07.113Z,12.83
2022-10-19T09:49:41.879Z,13.07
2022-10-19T09:52:25.799Z,13.42
2022-10-19T09:55:01.304Z,13.39
2022-10-19T09:57:29.259Z,13.25
2022-10-19T09:59:58.487Z,13.33
2022-10-19T10:02:31.480Z,13.10
2022-10-19T10:05:06.748Z,13.06
2022-10-19T10:07:37.891Z,13.03
2022-10-19T10:10:11.810Z,13.36
2022-10-19T10:12:41.352Z,13.86
2022-10-19T10:15:17.385Z,13.59
2022-10-19T10:17:46.242Z,13.26
2022-10-19T10:20:24.413Z,13.34
2022-10-19T10:22:56.871Z,13.01
2022-10-19T10:25:28.210Z,12.71
2022-10-19T10:27:58.864Z,13.00
2022-10-19T10:30:32.144Z,13.32
2022-10-19T10:33:08.147Z,13.32
2022-10-19T10:35:53.466Z,13.01
2022-10-19T10:38:24.255Z,12.70
2022-10-19T10:40:53.971Z,12.71
2022-10-19T10:43:25.484Z,13.31
2022-10-19T10:45:55.914Z,13.38
2022-10-19T10:48:29.293Z,13.57
2022-10-19T10:50:57.647Z,13.53
2022-10-19T10:53:35.320Z,14.12
2022-10-19T10:56:04.323Z,14.78
2022-10-19T10:58:38.264Z,14.68
2022-10-19T11:01:11.937Z,13.90
2022-10-19T11:03:47.262Z,13.63
2022-10-19T11:06:15.861Z,13.65
2022-10-19T11:08:49.046Z,13.99
2022-10-19T11:11:20.209Z,14.24
2022-10-19T11:13:52.824Z,14.45
2022-10-19T11:16:25.731Z,14.57
2022-10-19T11:18:55.025Z,15.17
2022-10-19T11:21:26.364Z,15.50
2022-10-19T11:24:01.971Z,15.38
2022-10-19T11:26:42.966Z,15.72
2022-10-19T11:29:25.085Z,14.88
2022-10-19T11:31:55.406Z,14.66
2022-10-19T11:34:39.135Z,15.12
2022-10-19T11:37:12.327Z,15.06
2022-10-19T11:39:48.823Z,15.33
2022-10-19T11:42:20.671Z,15.55
2022-10-19T11:44:59.342Z,15.28
2022-10-19T11:47:40.005Z,15.49
2022-10-19T11:50:29.618Z,16.34
2022-10-19T11:53:05.150Z,16.32
2022-10-19T11:55:39.321Z,16.62
2022-10-19T11:58:32.372Z,16.85
2022-10-19T12:01:10.723Z,17.07
2022-10-19T12:04:04.697Z,16.43
2022-10-19T12:06:37.376Z,16.14
2022-10-19T12:09:29.110Z,15.84
2022-10-19T12:12:06.583Z,15.91
2022-10-19T12:14:37.735Z,15.55
2022-10-19T12:19:49.451Z,16.12
2022-10-19T12:22:20.646Z,15.98
2022-10-19T12:24:50.751Z,16.10
2022-10-19T12:27:19.792Z,15.81
2022-10-19T12:29:49.104Z,16.55
2022-10-19T12:32:19.058Z,16.23
2022-10-19T12:34:56.470Z,15.96
2022-10-19T12:37:28.165Z,16.22
2022-10-19T12:39:59.393Z,16.57
2022-10-19T12:42:30.998Z,17.23
2022-10-19T12:45:11.921Z,17.49
2022-10-19T12:47:39.869Z,16.81
2022-10-19T12:50:09.532Z,17.10
2022-10-19T12:52:40.906Z,17.66
2022-10-19T12:55:14.577Z,17.14
2022-10-19T12:57:48.022Z,17.65
2022-10-19T13:00:21.376Z,17.74
2022-10-19T13:02:58.031Z,17.74
2022-10-19T13:05:29.455Z,17.88
2022-10-19T13:07:57.859Z,18.69
2022-10-19T13:10:26.985Z,18.81
2022-10-19T13:12:55.810Z,17.92
2022-10-19T13:15:51.567Z,18.55
2022-10-19T13:19:07.655Z,18.37
2022-10-19T13:21:49.265Z,17.44
2022-10-19T13:24:35.976Z,16.99
2022-10-19T13:27:26.893Z,17.17
2022-10-19T13:29:54.831Z,18.31
2022-10-19T13:32:44.315Z,18.20
2022-10-19T13:35:32.662Z,18.79
2022-10-19T13:38:27.651Z,19.15
2022-10-19T13:41:11.841Z,18.73
2022-10-19T13:43:42.375Z,18.81
2022-10-19T13:46:13.169Z,18.51
2022-10-19T13:48:57.545Z,18.46
2022-10-19T13:51:33.828Z,18.87
2022-10-19T13:54:20.685Z,18.79
2022-10-19T13:57:09.652Z,19.30
2022-10-19T14:00:07.357Z,18.02
2022-10-19T14:03:19.124Z,17.57
2022-10-19T14:06:08.666Z,17.20
2022-10-19T14:09:11.325Z,17.19
2022-10-19T14:11:41.148Z,17.56
2022-10-19T14:14:15.434Z,19.02
2022-10-19T14:16:51.021Z,19.12
2022-10-19T14:19:30.329Z,20.46
2022-10-19T14:22:00.033Z,20.16
2022-10-19T14:24:34.958Z,19.23
2022-10-19T14:27:03.727Z,19.76
2022-10-19T14:29:32.571Z,20.25
2022-10-19T14:32:00.917Z,20.58
2022-10-19T14:34:28.869Z,20.50
2022-10-19T14:36:56.872Z,19.79
2022-10-19T14:39:27.574Z,19.68
2022-10-19T14:41:58.513Z,19.62
2022-10-19T14:44:38.536Z,20.41
2022-10-19T14:47:19.011Z,20.81
2022-10-19T14:49:46.992Z,19.92
2022-10-19T14:52:18.831Z,19.49
2022-10-19T14:54:47.717Z,18.88
2022-10-19T14:57:20.228Z,18.45
2022-10-19T14:59:50.834Z,18.62
2022-10-19T15:02:20.242Z,18.65
2022-10-19T15:04:48.780Z,19.15
2022-10-19T15:07:19.826Z,19.85
2022-10-19T15:09:53.617Z,19.48
2022-10-19T15:12:26.972Z,18.70
2022-10-19T15:14:55.111Z,18.75
2022-10-19T15:17:25.937Z,18.72
2022-10-19T15:19:55.688Z,18.80
2022-10-19T15:22:27.184Z,18.48
2022-10-19T15:25:01.336Z,18.74
2022-10-19T15:27:35.487Z,18.50
2022-10-19T15:30:06.893Z,17.96
2022-10-19T15:32:37.473Z,18.02
2022-10-19T15:35:19.782Z,17.52
2022-10-19T15:37:49.900Z,17.20
2022-10-19T15:40:21.790Z,17.47
2022-10-19T15:42:51.089Z,16.26
2022-10-19T15:45:30.110Z,14.37
2022-10-19T15:48:25.666Z,13.43
2022-10-19T15:50:53.579Z,13.03
2022-10-19T15:53:22.139Z,12.73
2022-10-19T15:55:50.411Z,12.36
2022-10-19T15:58:21.119Z,12.39
2022-10-19T16:00:49.395Z,12.00
2022-10-19T16:03:17.267Z,11.84
2022-10-19T16:05:45.164Z,11.58
2022-10-19T16:08:12.971Z,11.42
2022-10-19T16:10:40.788Z,11.28
2022-10-19T16:13:08.711Z,11.00
2022-10-19T16:15:37.884Z,10.98
2022-10-19T16:18:05.794Z,10.78
2022-10-19T16:20:33.608Z,10.66
2022-10-19T16:23:01.498Z,10.61
2022-10-19T16:25:29.405Z,10.45
2022-10-19T16:27:57.257Z,10.31
2022-10-19T16:30:25.335Z,10.23
2022-10-19T16:32:54.534Z,10.19
2022-10-19T16:35:23.069Z,10.01
2022-10-19T16:37:50.953Z,9.99
2022-10-19T16:40:18.752Z,9.96
2022-10-19T16:42:46.691Z,9.82
2022-10-19T16:45:14.482Z,9.76
2022-10-19T16:47:42.389Z,9.71
2022-10-19T16:50:12.497Z,9.60
2022-10-19T16:52:40.551Z,9.67
2022-10-19T16:55:09.226Z,9.65
2022-10-19T16:57:37.137Z,9.63
2022-10-19T17:00:09.363Z,9.45
2022-10-19T17:02:41.797Z,9.41
2022-10-19T17:05:13.928Z,9.47
2022-10-19T17:07:41.862Z,9.49
2022-10-19T17:10:10.851Z,9.41
2022-10-19T17:12:40.736Z,9.29
2022-10-19T17:15:40.910Z,9.25
2022-10-19T17:17:58.110Z,9.38
2022-10-19T17:20:27.340Z,9.17
2022-10-19T17:22:55.164Z,8.88
2022-10-19T17:25:23.039Z,8.97
2022-10-19T17:27:51.518Z,8.88
2022-10-19T17:30:19.690Z,8.78
2022-10-19T17:32:47.670Z,8.63
2022-10-19T17:35:15.699Z,8.51
2022-10-19T17:37:44.939Z,8.63
2022-10-19T17:40:13.507Z,8.48
2022-10-19T17:42:41.718Z,8.41
2022-10-19T17:45:11.046Z,8.34
2022-10-19T17:47:39.000Z,8.28
2022-10-19T17:50:07.884Z,8.15
2022-10-19T17:52:35.940Z,8.04
2022-10-19T17:55:12.267Z,7.97
2022-10-19T17:57:41.023Z,8.03
2022-10-19T18:00:09.782Z,8.10
2022-10-19T18:02:40.689Z,8.09
2022-10-19T18:05:09.770Z,8.04
2022-10-19T18:07:37.972Z,7.99
2022-10-19T18:10:08.102Z,7.96
2022-10-19T18:12:35.984Z,7.83
2022-10-19T18:15:04.143Z,7.84
2022-10-19T18:17:32.038Z,7.80
2022-10-19T18:19:59.911Z,7.67
2022-10-19T18:22:27.803Z,7.77
2022-10-19T18:24:55.710Z,7.66
2022-10-19T18:27:25.045Z,7.74
2022-10-19T18:29:53.137Z,7.65
2022-10-19T18:32:21.056Z,7.58
2022-10-19T18:34:49.118Z,7.51
2022-10-19T18:37:17.121Z,7.36
2022-10-19T18:39:44.967Z,7.52
2022-10-19T18:42:13.207Z,7.40
2022-10-19T18:44:42.375Z,7.35
2022-10-19T18:47:11.810Z,7.24
2022-10-19T18:49:39.662Z,7.14
2022-10-19T18:52:07.555Z,7.10
2022-10-19T18:54:35.458Z,7.23
2022-10-19T18:57:03.444Z,7.16
2022-10-19T18:59:31.518Z,7.10
2022-10-19T19:02:07.875Z,7.07
2022-10-19T19:04:41.758Z,7.01
2022-10-19T19:07:10.153Z,6.97
2022-10-19T19:09:38.154Z,6.82
2022-10-19T19:12:06.098Z,6.75
2022-10-19T19:14:34.058Z,6.64
2022-10-19T19:17:03.631Z,6.54
2022-10-19T19:19:31.554Z,6.48
2022-10-19T19:22:05.122Z,6.50
2022-10-19T19:24:35.823Z,6.40
2022-10-19T19:27:03.809Z,6.30
2022-10-19T19:29:31.795Z,6.27
2022-10-19T19:31:59.816Z,6.25
2022-10-19T19:34:29.212Z,6.22
2022-10-19T19:36:57.316Z,6.13
2022-10-19T19:39:25.257Z,6.15
2022-10-19T19:41:53.271Z,6.19
2022-10-19T19:44:21.175Z,6.11
2022-10-19T19:46:49.094Z,6.03
2022-10-19T19:49:17.279Z,5.99
2022-10-19T19:51:46.569Z,6.03
2022-10-19T19:54:14.702Z,6.41
2022-10-19T19:56:43.330Z,6.36
2022-10-19T19:59:12.160Z,6.20
2022-10-19T20:01:40.156Z,6.25
2022-10-19T20:04:08.247Z,6.17
2022-10-19T20:06:37.381Z,6.02
2022-10-19T20:09:07.278Z,5.96
2022-10-19T20:11:39.661Z,5.98
2022-10-19T20:14:10.006Z,5.95
2022-10-19T20:16:38.013Z,5.90
2022-10-19T20:19:08.113Z,5.80
2022-10-19T20:21:36.056Z,5.67
2022-10-19T20:24:04.449Z,5.60
2022-10-19T20:26:34.025Z,5.57
2022-10-19T20:29:02.872Z,5.57
2022-10-19T20:31:31.357Z,5.49
2022-10-19T20:33:59.279Z,5.51
2022-10-19T20:36:27.645Z,5.47
2022-10-19T20:38:56.971Z,5.42
2022-10-19T20:41:26.562Z,5.37
2022-10-19T20:43:56.276Z,5.28
2022-10-19T20:46:26.011Z,5.21
2022-10-19T20:48:54.692Z,5.19
2022-10-19T20:51:27.462Z,5.11
2022-10-19T20:53:59.432Z,5.15
2022-10-19T20:56:29.269Z,5.14
2022-10-19T20:59:00.317Z,5.21
2022-10-19T21:01:29.746Z,5.11
2022-10-19T21:04:00.502Z,5.09
2022-10-19T21:06:29.836Z,5.03
2022-10-19T21:08:58.625Z,4.99
2022-10-19T21:11:28.516Z,4.99
2022-10-19T21:14:02.262Z,5.02
2022-10-19T21:16:33.620Z,5.00
2022-10-19T21:19:02.379Z,4.95
2022-10-19T21:21:31.939Z,4.86
2022-10-19T21:24:02.449Z,4.79
2022-10-19T21:26:30.389Z,4.74
2022-10-19T21:28:59.993Z,4.68
2022-10-19T21:31:28.264Z,4.67
2022-10-19T21:33:56.313Z,4.65
2022-10-19T21:36:25.495Z,4.63
2022-10-19T21:38:53.417Z,4.61
2022-10-19T21:41:25.454Z,4.59
2022-10-19T21:43:54.731Z,4.58
2022-10-19T21:46:24.430Z,4.66
2022-10-19T21:48:53.793Z,4.63
2022-10-19T21:51:32.616Z,4.56
2022-10-19T21:54:00.587Z,4.52
2022-10-19T21:56:29.254Z,4.46
2022-10-19T21:58:57.717Z,4.41
2022-10-19T22:01:28.725Z,4.41
2022-10-19T22:03:57.401Z,4.36
2022-10-19T22:06:25.727Z,4.37
2022-10-19T22:08:53.960Z,4.42
2022-10-19T22:11:22.404Z,4.34
2022-10-19T22:13:50.436Z,4.31
2022-10-19T22:16:19.955Z,4.45
2022-10-19T22:18:49.665Z,4.43
2022-10-19T22:21:20.365Z,4.40
2022-10-19T22:23:52.773Z,4.36
2022-10-19T22:26:23.349Z,4.28
2022-10-19T22:28:51.488Z,4.20
2022-10-19T22:31:19.757Z,4.19
2022-10-19T22:33:49.114Z,4.22
2022-10-19T22:36:17.235Z,4.18
2022-10-19T22:38:45.406Z,4.28
2022-10-19T22:41:13.298Z,4.22
2022-10-19T22:43:41.235Z,4.15
2022-10-19T22:46:09.331Z,4.10
2022-10-19T22:48:37.224Z,4.02
2022-10-19T22:51:06.508Z,3.98
2022-10-19T22:53:34.409Z,3.96
2022-10-19T22:56:02.464Z,3.99
2022-10-19T22:58:30.469Z,3.96
2022-10-19T23:01:02.885Z,4.00
2022-10-19T23:03:30.878Z,3.96
2022-10-19T23:05:58.871Z,3.94
2022-10-19T23:08:28.204Z,3.95
2022-10-19T23:10:56.164Z,3.96
2022-10-19T23:13:24.119Z,4.03
2022-10-19T23:15:52.024Z,3.99
2022-10-19T23:18:20.168Z,4.03
2022-10-19T23:20:57.796Z,4.20
2022-10-19T23:23:25.937Z,4.12
2022-10-19T23:26:02.848Z,4.16
2022-10-19T23:28:31.574Z,4.19
2022-10-19T23:31:00.120Z,4.25
2022-10-19T23:33:28.025Z,4.26
2022-10-19T23:35:55.892Z,4.18
2022-10-19T23:38:23.856Z,4.20
2022-10-19T23:40:51.663Z,4.19
2022-10-19T23:43:20.948Z,4.24
2022-10-19T23:45:48.831Z,4.12
2022-10-19T23:48:16.641Z,4.19
2022-10-19T23:50:44.672Z,4.17
2022-10-19T23:53:12.693Z,4.16
2022-10-19T23:55:40.497Z,4.16
2022-10-19T23:58:08.568Z,4.08
